Time;durP1;ratioP1;P1;durP2;ratioP2;P2;SDS_P1;SDS_P2;PMS_P1;PMS_P2;Temp;Humidity;BMP_temperature;BMP_pressure;BME280_temperature;BME280_humidity;BME280_pressure;Samples;Min_cycle;Max_cycle;Signal;HPM_P1;HPM_P2
2021/05/29 00:00:23;;;;;;;1.4;0.8;;;;;;;;;;;;;
2021/05/29 00:02:48;;;;;;;1.5;1;;;;;;;;;;;;;
2021/05/29 00:05:14;;;;;;;0.9;0.7;;;;;;;;;;;;;
2021/05/29 00:07:39;;;;;;;2.1;1.1;;;;;;;;;;;;;
2021/05/29 00:10:04;;;;;;;0.8;0.6;;;;;;;;;;;;;
2021/05/29 00:12:29;;;;;;;1;0.9;;;;;;;;;;;;;
2021/05/29 00:14:54;;;;;;;1.8;0.8;;;;;;;;;;;;;
2021/05/29 00:17:20;;;;;;;0.8;0.8;;;;;;;;;;;;;
2021/05/29 00:19:45;;;;;;;2.6;1.3;;;;;;;;;;;;;
2021/05/29 00:22:10;;;;;;;2;1.2;;;;;;;;;;;;;
2021/05/29 00:24:35;;;;;;;1.6;0.6;;;;;;;;;;;;;
2021/05/29 00:27:01;;;;;;;1.1;1;;;;;;;;;;;;;
2021/05/29 00:29:26;;;;;;;2.5;1.3;;;;;;;;;;;;;
2021/05/29 00:31:51;;;;;;;3.2;1.1;;;;;;;;;;;;;
2021/05/29 00:34:16;;;;;;;1.3;0.9;;;;;;;;;;;;;
2021/05/29 00:36:41;;;;;;;2.1;1.3;;;;;;;;;;;;;
2021/05/29 00:39:07;;;;;;;1.3;1;;;;;;;;;;;;;
2021/05/29 00:41:32;;;;;;;1.4;0.9;;;;;;;;;;;;;
2021/05/29 00:43:57;;;;;;;2.3;1.2;;;;;;;;;;;;;
2021/05/29 00:46:22;;;;;;;2.9;1.3;;;;;;;;;;;;;
2021/05/29 00:48:47;;;;;;;2.9;1;;;;;;;;;;;;;
2021/05/29 00:51:12;;;;;;;2.1;1.1;;;;;;;;;;;;;
2021/05/29 00:53:37;;;;;;;2.8;1.4;;;;;;;;;;;;;
2021/05/29 00:56:02;;;;;;;0.8;0.8;;;;;;;;;;;;;
2021/05/29 00:58:27;;;;;;;1.7;0.9;;;;;;;;;;;;;
2021/05/29 01:00:52;;;;;;;0.8;0.8;;;;;;;;;;;;;
2021/05/29 01:03:17;;;;;;;1.7;1.1;;;;;;;;;;;;;
2021/05/29 01:05:43;;;;;;;4.7;1.2;;;;;;;;;;;;;
2021/05/29 01:08:08;;;;;;;1.4;1.1;;;;;;;;;;;;;
2021/05/29 01:10:33;;;;;;;2.5;1.3;;;;;;;;;;;;;
2021/05/29 01:13:01;;;;;;;0.9;0.8;;;;;;;;;;;;;
2021/05/29 01:15:25;;;;;;;1.4;0.9;;;;;;;;;;;;;
2021/05/29 01:17:50;;;;;;;2.1;0.9;;;;;;;;;;;;;
2021/05/29 01:20:15;;;;;;;1.8;1.3;;;;;;;;;;;;;
2021/05/29 01:22:41;;;;;;;1.6;1.1;;;;;;;;;;;;;
2021/05/29 01:25:06;;;;;;;0.9;0.9;;;;;;;;;;;;;
2021/05/29 01:27:32;;;;;;;1;0.8;;;;;;;;;;;;;
2021/05/29 01:29:57;;;;;;;1.4;0.7;;;;;;;;;;;;;
2021/05/29 01:32:22;;;;;;;1.6;1;;;;;;;;;;;;;
2021/05/29 01:34:59;;;;;;;0.7;0.7;;;;;;;;;;;;;
2021/05/29 01:37:12;;;;;;;1.2;0.9;;;;;;;;;;;;;
2021/05/29 01:39:38;;;;;;;1.1;1;;;;;;;;;;;;;
2021/05/29 01:42:03;;;;;;;1.6;1;;;;;;;;;;;;;
2021/05/29 01:44:28;;;;;;;1;0.9;;;;;;;;;;;;;
2021/05/29 01:46:53;;;;;;;3.5;0.9;;;;;;;;;;;;;
2021/05/29 01:49:19;;;;;;;3.3;0.9;;;;;;;;;;;;;
2021/05/29 01:51:44;;;;;;;1.1;1;;;;;;;;;;;;;
2021/05/29 01:54:09;;;;;;;2.4;1;;;;;;;;;;;;;
2021/05/29 01:56:34;;;;;;;1;0.9;;;;;;;;;;;;;
2021/05/29 01:58:59;;;;;;;0.7;0.7;;;;;;;;;;;;;
2021/05/29 02:01:24;;;;;;;1.5;1;;;;;;;;;;;;;
2021/05/29 02:03:49;;;;;;;1.9;0.9;;;;;;;;;;;;;
2021/05/29 02:06:14;;;;;;;1.6;0.7;;;;;;;;;;;;;
2021/05/29 02:08:39;;;;;;;2.6;1.3;;;;;;;;;;;;;
2021/05/29 02:11:04;;;;;;;1.9;1.4;;;;;;;;;;;;;
2021/05/29 02:13:44;;;;;;;1.8;0.9;;;;;;;;;;;;;
2021/05/29 02:15:54;;;;;;;1.3;1.1;;;;;;;;;;;;;
2021/05/29 02:18:20;;;;;;;1.1;1;;;;;;;;;;;;;
2021/05/29 02:20:45;;;;;;;2;1.3;;;;;;;;;;;;;
2021/05/29 02:23:10;;;;;;;1.9;1;;;;;;;;;;;;;
2021/05/29 02:25:35;;;;;;;1.3;1.1;;;;;;;;;;;;;
2021/05/29 02:28:00;;;;;;;0.7;0.7;;;;;;;;;;;;;
2021/05/29 02:30:25;;;;;;;1.3;0.9;;;;;;;;;;;;;
2021/05/29 02:32:51;;;;;;;1;0.8;;;;;;;;;;;;;
2021/05/29 02:35:16;;;;;;;0.7;0.7;;;;;;;;;;;;;
2021/05/29 02:37:41;;;;;;;1.7;1.2;;;;;;;;;;;;;
2021/05/29 02:40:06;;;;;;;1.6;1.2;;;;;;;;;;;;;
2021/05/29 02:42:31;;;;;;;0.7;0.7;;;;;;;;;;;;;
2021/05/29 02:44:57;;;;;;;1.2;0.8;;;;;;;;;;;;;
2021/05/29 02:47:22;;;;;;;2.3;1;;;;;;;;;;;;;
2021/05/29 02:49:47;;;;;;;0.7;0.7;;;;;;;;;;;;;
2021/05/29 02:52:12;;;;;;;1;0.7;;;;;;;;;;;;;
2021/05/29 02:54:41;;;;;;;2.5;0.9;;;;;;;;;;;;;
2021/05/29 02:57:03;;;;;;;1.1;0.9;;;;;;;;;;;;;
2021/05/29 02:59:29;;;;;;;1.4;1;;;;;;;;;;;;;
2021/05/29 03:01:54;;;;;;;1.4;1;;;;;;;;;;;;;
2021/05/29 03:04:19;;;;;;;2.2;1.3;;;;;;;;;;;;;
2021/05/29 03:06:44;;;;;;;1.2;1.1;;;;;;;;;;;;;
2021/05/29 03:09:09;;;;;;;3.7;0.9;;;;;;;;;;;;;
2021/05/29 03:11:38;;;;;;;1;0.9;;;;;;;;;;;;;
2021/05/29 03:13:59;;;;;;;1.1;1;;;;;;;;;;;;;
2021/05/29 03:16:24;;;;;;;1.8;1;;;;;;;;;;;;;
2021/05/29 03:18:49;;;;;;;1.7;1.3;;;;;;;;;;;;;
2021/05/29 03:21:15;;;;;;;1.5;0.9;;;;;;;;;;;;;
2021/05/29 03:23:41;;;;;;;1.4;1;;;;;;;;;;;;;
2021/05/29 03:26:07;;;;;;;1.5;1.1;;;;;;;;;;;;;
2021/05/29 03:28:32;;;;;;;1.5;0.7;;;;;;;;;;;;;
2021/05/29 03:30:58;;;;;;;1.2;1.1;;;;;;;;;;;;;
2021/05/29 03:33:23;;;;;;;1.6;1.1;;;;;;;;;;;;;
2021/05/29 03:35:49;;;;;;;4.4;1.1;;;;;;;;;;;;;
2021/05/29 03:38:14;;;;;;;1.1;1;;;;;;;;;;;;;
2021/05/29 03:40:39;;;;;;;1.2;1.1;;;;;;;;;;;;;
2021/05/29 03:43:04;;;;;;;1;0.9;;;;;;;;;;;;;
2021/05/29 03:45:29;;;;;;;1.6;1.2;;;;;;;;;;;;;
2021/05/29 03:47:54;;;;;;;4.4;1.5;;;;;;;;;;;;;
2021/05/29 03:50:19;;;;;;;2.4;1.3;;;;;;;;;;;;;
2021/05/29 03:52:45;;;;;;;1.6;1.4;;;;;;;;;;;;;
2021/05/29 03:55:10;;;;;;;2.8;1.3;;;;;;;;;;;;;
2021/05/29 03:57:35;;;;;;;1.6;1.4;;;;;;;;;;;;;
2021/05/29 04:00:00;;;;;;;1.2;1.1;;;;;;;;;;;;;
2021/05/29 04:02:31;;;;;;;1.6;1.4;;;;;;;12.84;74.64551;941.1309;;;;
2021/05/29 04:04:56;;;;;;;3.4;1.8;;;;;;;12.79;74.9707;941.1926;;;;
2021/05/29 04:07:23;;;;;;;4.2;1.3;;;;;;;12.73;75.1416;941.2729;;;;
2021/05/29 04:09:48;;;;;;;1.4;1.1;;;;;;;12.73;75.38281;941.1555;;;;
2021/05/29 04:12:13;;;;;;;5;1.3;;;;;;;12.6;75.89844;941.2511;;;;
2021/05/29 04:14:39;;;;;;;1.9;1.7;;;;;;;12.69;75.64063;941.2751;;;;
2021/05/29 04:17:04;;;;;;;2.2;2;;;;;;;12.7;75.6416;941.2536;;;;
2021/05/29 04:19:30;;;;;;;2.3;1.6;;;;;;;12.64;75.98633;941.2844;;;;
2021/05/29 04:21:55;;;;;;;3.7;2;;;;;;;12.51;76.53613;941.3616;;;;
2021/05/29 04:24:22;;;;;;;2;1.7;;;;;;;12.56;76.01758;941.3747;;;;
2021/05/29 04:26:47;;;;;;;1.6;1.3;;;;;;;12.4;76.81543;941.4036;;;;
2021/05/29 04:29:13;;;;;;;3.1;1.8;;;;;;;12.57;76.11133;941.3939;;;;
2021/05/29 04:31:38;;;;;;;2.6;1.7;;;;;;;12.54;75.77539;941.4161;;;;
2021/05/29 04:34:04;;;;;;;2.2;1.4;;;;;;;12.57;75.72266;941.4187;;;;
2021/05/29 04:36:30;;;;;;;2.6;1.6;;;;;;;12.62;75.29492;941.4648;;;;
2021/05/29 04:38:56;;;;;;;2.1;1.9;;;;;;;12.57;75.34277;941.4835;;;;
2021/05/29 04:41:21;;;;;;;3.6;1.8;;;;;;;12.54;75.5332;941.4496;;;;
2021/05/29 04:43:47;;;;;;;2;1.8;;;;;;;12.57;75.29688;941.4771;;;;
2021/05/29 04:46:12;;;;;;;2.4;1.6;;;;;;;12.66;75.23242;941.5499;;;;
2021/05/29 04:48:38;;;;;;;2.2;1.4;;;;;;;12.7;75.18262;941.5581;;;;
2021/05/29 04:51:12;;;;;;;2;1.7;;;;;;;12.71;75.23145;941.6205;;;;
2021/05/29 04:53:28;;;;;;;2.3;1.8;;;;;;;12.6;75.41602;941.5706;;;;
2021/05/29 04:55:54;;;;;;;3.8;2.2;;;;;;;12.61;75.64941;941.5971;;;;
2021/05/29 04:58:23;;;;;;;3.3;2.2;;;;;;;12.51;75.81543;941.59;;;;
2021/05/29 05:00:48;;;;;;;3.7;2;;;;;;;12.68;75.26953;941.6666;;;;
2021/05/29 05:03:13;;;;;;;2.9;1.8;;;;;;;12.75;74.97266;941.647;;;;
2021/05/29 05:05:39;;;;;;;2.2;1.7;;;;;;;12.79;74.93457;941.6058;;;;
2021/05/29 05:08:34;;;;;;;2.9;1.5;;;;;;;12.79;75.11914;941.6163;;;;
2021/05/29 05:11:02;;;;;;;3.4;1.7;;;;;;;12.86;74.33691;941.6769;;;;
2021/05/29 05:13:28;;;;;;;3;1.7;;;;;;;12.85;74.39453;941.6559;;;;
2021/05/29 05:15:54;;;;;;;1.7;1.5;;;;;;;12.96;73.80273;941.6694;;;;
2021/05/29 05:18:21;;;;;;;4;1.8;;;;;;;12.89;73.83789;941.6955;;;;
2021/05/29 05:20:44;;;;;;;3.1;1.9;;;;;;;12.81;73.7666;941.6747;;;;
2021/05/29 05:23:09;;;;;;;1.5;1.4;;;;;;;12.61;74.58398;941.6958;;;;
2021/05/29 05:25:34;;;;;;;4.2;1.8;;;;;;;12.64;74.54199;941.6824;;;;
2021/05/29 05:28:00;;;;;;;3.4;2;;;;;;;12.43;75.7207;941.702;;;;
2021/05/29 05:30:25;;;;;;;2.2;1.6;;;;;;;12.53;75.42871;941.698;;;;
2021/05/29 05:32:50;;;;;;;4.4;2.2;;;;;;;12.26;76.70117;941.6317;;;;
2021/05/29 05:35:17;;;;;;;3.5;1.9;;;;;;;12.26;76.25293;941.6437;;;;
2021/05/29 05:37:41;;;;;;;1.9;1.7;;;;;;;12.46;75.53027;941.6831;;;;
2021/05/29 05:40:06;;;;;;;3.7;1.9;;;;;;;12.57;74.9082;941.6408;;;;
2021/05/29 05:44:56;;;;;;;2.1;1.9;;;;;;;12.68;74.26172;941.7234;;;;
2021/05/29 05:47:22;;;;;;;3.7;2.4;;;;;;;12.77;73.88672;941.6777;;;;
2021/05/29 05:49:47;;;;;;;5.2;1.8;;;;;;;12.82;73.63086;941.7733;;;;
2021/05/29 05:52:12;;;;;;;2.8;2.3;;;;;;;12.79;73.60449;941.8032;;;;
2021/05/29 05:54:37;;;;;;;3.9;1.8;;;;;;;12.88;73.49023;941.7936;;;;
2021/05/29 05:57:02;;;;;;;2.2;1.8;;;;;;;12.84;73.61035;941.7574;;;;
2021/05/29 05:59:28;;;;;;;2.1;1.6;;;;;;;12.85;73.71582;941.775;;;;
2021/05/29 06:01:53;;;;;;;1.5;1.3;;;;;;;12.79;74.00488;941.8064;;;;
2021/05/29 06:04:19;;;;;;;3.1;2.1;;;;;;;12.78;73.93262;941.8391;;;;
2021/05/29 06:06:44;;;;;;;4.8;1.9;;;;;;;12.84;73.63477;941.7974;;;;
2021/05/29 06:09:11;;;;;;;2;1.8;;;;;;;12.92;73.23535;941.8323;;;;
2021/05/29 06:11:36;;;;;;;2;1.8;;;;;;;13.01;72.69824;941.8583;;;;
2021/05/29 06:19:12;;;;;;;3.1;1.8;;;;;;;13.09;72.72363;941.8318;;;;
2021/05/29 06:21:19;;;;;;;2.7;1.7;;;;;;;12.95;73.42383;941.9059;;;;
2021/05/29 06:23:44;;;;;;;2.5;1.9;;;;;;;13.14;72.83398;941.8969;;;;
2021/05/29 06:26:12;;;;;;;3;1.3;;;;;;;13.1;72.21973;941.8856;;;;
2021/05/29 06:28:37;;;;;;;2.6;1.7;;;;;;;13.19;71.71582;941.9231;;;;
2021/05/29 06:31:04;;;;;;;1.7;1.3;;;;;;;13.27;70.8916;941.8727;;;;
2021/05/29 06:33:27;;;;;;;1.6;1.5;;;;;;;13.3;70.82715;941.9456;;;;
2021/05/29 06:35:52;;;;;;;2.1;1.4;;;;;;;13.46;70.12988;941.973;;;;
2021/05/29 06:38:17;;;;;;;2.3;1.5;;;;;;;13.35;69.87109;941.949;;;;
2021/05/29 06:40:42;;;;;;;3.7;1.7;;;;;;;13.28;70.36621;942.0455;;;;
2021/05/29 06:43:07;;;;;;;4.1;1.8;;;;;;;13.35;69.45898;942.033;;;;
2021/05/29 06:45:34;;;;;;;1.8;1;;;;;;;13.3;69.63379;942.0608;;;;
2021/05/29 06:47:59;;;;;;;2.2;1.6;;;;;;;13.39;70.08398;942.0748;;;;
2021/05/29 06:50:24;;;;;;;1.9;1.7;;;;;;;13.55;69.47754;942.0758;;;;
2021/05/29 06:52:52;;;;;;;5.3;1.8;;;;;;;13.69;68.6377;942.1294;;;;
2021/05/29 07:01:03;;;;;;;1.6;1.3;;;;;;;13.78;68.00684;942.233;;;;
2021/05/29 07:03:28;;;;;;;1.8;1.4;;;;;;;13.69;69.09766;942.1446;;;;
2021/05/29 07:05:53;;;;;;;2.9;1.7;;;;;;;13.76;67.6582;942.2457;;;;
2021/05/29 07:08:20;;;;;;;2.4;1;;;;;;;13.62;67.98145;942.23;;;;
2021/05/29 07:10:45;;;;;;;0.8;0.8;;;;;;;13.58;67.83789;942.2231;;;;
2021/05/29 07:13:11;;;;;;;2;1.3;;;;;;;13.7;67.74219;942.2023;;;;
2021/05/29 07:15:38;;;;;;;1.5;1.2;;;;;;;13.46;69.1875;942.2545;;;;
2021/05/29 07:18:06;;;;;;;2;1.7;;;;;;;13.46;69.00293;942.2346;;;;
2021/05/29 07:20:27;;;;;;;1.9;1.2;;;;;;;13.47;69.02734;942.2442;;;;
2021/05/29 07:22:53;;;;;;;2.3;1.4;;;;;;;13.22;69.25293;942.2971;;;;
2021/05/29 07:25:19;;;;;;;2.3;1.5;;;;;;;13.04;70.63672;942.3793;;;;
2021/05/29 07:27:45;;;;;;;1.5;1.1;;;;;;;12.93;71.38672;942.4006;;;;
2021/05/29 07:30:10;;;;;;;1.8;1.3;;;;;;;12.96;70.73828;942.3801;;;;
2021/05/29 07:32:36;;;;;;;1.8;1.4;;;;;;;13.01;70.66602;942.3156;;;;
2021/05/29 07:35:06;;;;;;;1.2;1.1;;;;;;;12.99;71.12207;942.3531;;;;
2021/05/29 07:37:33;;;;;;;0.8;0.8;;;;;;;12.92;70.94922;942.2662;;;;
2021/05/29 07:39:58;;;;;;;2.5;1.3;;;;;;;12.8;71.75684;942.3826;;;;
2021/05/29 07:42:24;;;;;;;1.6;1.1;;;;;;;12.96;71.2998;942.4264;;;;
2021/05/29 07:44:49;;;;;;;1.4;1.2;;;;;;;13.07;71.27344;942.377;;;;
2021/05/29 07:47:17;;;;;;;1.7;1.3;;;;;;;13.06;71.40918;942.4482;;;;
2021/05/29 07:49:41;;;;;;;2.2;1.4;;;;;;;13.05;71.51172;942.4146;;;;
2021/05/29 07:52:06;;;;;;;2.6;1.7;;;;;;;12.99;71.71875;942.5034;;;;
2021/05/29 07:54:31;;;;;;;2.3;1.6;;;;;;;13.04;72.66992;942.4177;;;;
2021/05/29 07:56:56;;;;;;;1.5;1.3;;;;;;;12.83;73.12695;942.4319;;;;
2021/05/29 07:59:21;;;;;;;1.6;1.3;;;;;;;12.68;72.94238;942.4504;;;;
2021/05/29 08:01:46;;;;;;;1.3;1;;;;;;;12.68;73.19434;942.4928;;;;
2021/05/29 08:04:14;;;;;;;1.8;1.3;;;;;;;12.75;72.86133;942.5508;;;;
2021/05/29 08:06:38;;;;;;;1.7;1.3;;;;;;;12.67;72.55078;942.5862;;;;
2021/05/29 08:09:05;;;;;;;1.1;1;;;;;;;12.67;73.06543;942.6085;;;;
2021/05/29 08:11:28;;;;;;;1.4;1.2;;;;;;;12.88;72.75684;942.605;;;;
2021/05/29 08:13:55;;;;;;;1.6;1.2;;;;;;;12.97;72.27832;942.5991;;;;
2021/05/29 08:16:20;;;;;;;1.9;1.4;;;;;;;13.03;72.33398;942.623;;;;
2021/05/29 08:18:46;;;;;;;1.7;1.4;;;;;;;13.05;72.06055;942.6359;;;;
2021/05/29 08:21:11;;;;;;;1;0.9;;;;;;;12.84;72.30371;942.6653;;;;
2021/05/29 08:23:36;;;;;;;1.7;1.3;;;;;;;13.12;71.54492;942.6428;;;;
2021/05/29 08:26:01;;;;;;;2.3;1.1;;;;;;;13.1;71.59863;942.6211;;;;
2021/05/29 08:28:27;;;;;;;1.8;1.2;;;;;;;13.13;71.15723;942.6453;;;;
2021/05/29 08:30:52;;;;;;;1.3;1;;;;;;;13.28;70.84863;942.6653;;;;
2021/05/29 08:33:17;;;;;;;4.2;1.3;;;;;;;13.36;71.10254;942.7033;;;;
2021/05/29 08:35:44;;;;;;;2.1;1.1;;;;;;;13.42;71.54785;942.6344;;;;
2021/05/29 08:38:09;;;;;;;3.3;1.4;;;;;;;13.49;71.86035;942.734;;;;
2021/05/29 08:40:34;;;;;;;1.3;1.2;;;;;;;13.62;71.90234;942.8365;;;;
2021/05/29 08:42:59;;;;;;;1.5;1.2;;;;;;;13.64;71.1709;942.7791;;;;
2021/05/29 08:45:24;;;;;;;2.4;1.5;;;;;;;13.61;72.29297;942.805;;;;
2021/05/29 08:47:49;;;;;;;2.3;1.7;;;;;;;13.64;72.53906;942.7646;;;;
2021/05/29 08:50:15;;;;;;;1.4;1.2;;;;;;;13.39;74.8877;942.7555;;;;
2021/05/29 08:52:41;;;;;;;1.8;1.2;;;;;;;13.38;76.53125;942.8058;;;;
2021/05/29 08:55:06;;;;;;;5.9;1.3;;;;;;;13.51;76.20703;942.722;;;;
2021/05/29 08:57:31;;;;;;;3.3;1.9;;;;;;;13.59;76.29004;942.7769;;;;
2021/05/29 08:59:56;;;;;;;1.8;1.1;;;;;;;13.54;76.30566;942.8014;;;;
2021/05/29 09:02:21;;;;;;;2.1;1.6;;;;;;;13.67;75.25781;942.8056;;;;
2021/05/29 09:04:46;;;;;;;1.6;1.3;;;;;;;13.89;74.11035;942.7859;;;;
2021/05/29 09:07:12;;;;;;;1.8;1.3;;;;;;;13.83;74.49414;942.861;;;;
2021/05/29 09:09:37;;;;;;;2.8;1.4;;;;;;;13.68;74.99512;942.8296;;;;
2021/05/29 09:12:03;;;;;;;1.9;1.3;;;;;;;13.61;74.93848;942.925;;;;
2021/05/29 09:14:29;;;;;;;3.3;1.6;;;;;;;13.73;73.63379;942.8578;;;;
2021/05/29 09:16:53;;;;;;;1.6;1.3;;;;;;;13.92;75.77344;942.8965;;;;
2021/05/29 09:19:19;;;;;;;1.1;1;;;;;;;13.88;69.24316;942.9309;;;;
2021/05/29 09:21:43;;;;;;;2.5;1.3;;;;;;;13.96;71.44141;942.9128;;;;
2021/05/29 09:24:09;;;;;;;1.4;1.2;;;;;;;13.78;69.89453;943.0094;;;;
2021/05/29 09:26:35;;;;;;;1.2;1.1;;;;;;;13.76;72.49023;943.0453;;;;
2021/05/29 09:29:01;;;;;;;1.2;1.1;;;;;;;13.89;73.2373;943.0062;;;;
2021/05/29 09:31:26;;;;;;;1.4;1.3;;;;;;;14;73.2207;943.0883;;;;
2021/05/29 09:33:52;;;;;;;1.5;1.2;;;;;;;14.1;73.45605;943.109;;;;
2021/05/29 09:36:17;;;;;;;4;1.5;;;;;;;14.18;73.75781;943.0756;;;;
2021/05/29 09:38:42;;;;;;;1.8;1;;;;;;;14.51;70.65527;943.0437;;;;
2021/05/29 09:41:08;;;;;;;2;1.4;;;;;;;14.52;68.31836;943.0229;;;;
2021/05/29 09:43:32;;;;;;;1.6;1;;;;;;;14.87;71.47363;942.9934;;;;
2021/05/29 09:45:58;;;;;;;2.6;1.5;;;;;;;15.13;67.38574;943.0098;;;;
2021/05/29 09:48:24;;;;;;;1.9;1.4;;;;;;;15.01;67.49609;942.9734;;;;
2021/05/29 09:50:54;;;;;;;1;0.9;;;;;;;15.04;65.48145;942.9922;;;;
2021/05/29 09:53:16;;;;;;;1.3;0.7;;;;;;;15.09;67.33496;942.916;;;;
2021/05/29 09:55:42;;;;;;;2;1.2;;;;;;;15.55;68.25;942.8974;;;;
2021/05/29 09:58:07;;;;;;;2.9;1.2;;;;;;;15.83;65.84277;942.9264;;;;
2021/05/29 10:00:33;;;;;;;1.4;1.2;;;;;;;16.07;64.59473;942.8239;;;;
2021/05/29 10:02:59;;;;;;;1.9;1.3;;;;;;;16.47;65.75293;942.8546;;;;
2021/05/29 10:05:25;;;;;;;1.6;1.3;;;;;;;16.73;62.12109;942.8993;;;;
2021/05/29 10:07:50;;;;;;;1.2;1.1;;;;;;;16.95;61.73535;942.8215;;;;
2021/05/29 10:10:18;;;;;;;1.2;1.1;;;;;;;16.86;63.35645;942.8496;;;;
2021/05/29 10:12:43;;;;;;;1.8;1.3;;;;;;;17.33;62.57813;942.8761;;;;
2021/05/29 10:15:11;;;;;;;2.9;1.5;;;;;;;17.47;59.46484;942.8275;;;;
2021/05/29 10:17:33;;;;;;;1.7;1.1;;;;;;;17.48;57.50684;942.8613;;;;
2021/05/29 10:19:59;;;;;;;1.6;1.2;;;;;;;17.81;57.83789;942.8625;;;;
2021/05/29 10:22:24;;;;;;;1.6;1;;;;;;;17.06;57.56738;942.8178;;;;
2021/05/29 10:24:51;;;;;;;1.7;1.1;;;;;;;17.14;59.47754;942.875;;;;
2021/05/29 10:27:18;;;;;;;2.7;1.4;;;;;;;17.7;59.85547;942.8033;;;;
2021/05/29 10:29:42;;;;;;;1.3;1.2;;;;;;;17.48;55.64941;942.8201;;;;
2021/05/29 10:32:07;;;;;;;1.2;1.1;;;;;;;17.82;58.58398;942.806;;;;
2021/05/29 10:34:33;;;;;;;1.6;1.2;;;;;;;18.36;55.04004;942.7728;;;;
2021/05/29 10:36:59;;;;;;;1.9;1.3;;;;;;;18.84;52.77344;942.8043;;;;
2021/05/29 10:39:24;;;;;;;1.8;1.1;;;;;;;18.55;51.48242;942.8528;;;;
2021/05/29 10:41:49;;;;;;;2;1.3;;;;;;;18.63;51.97949;942.837;;;;
2021/05/29 10:44:14;;;;;;;1.3;0.8;;;;;;;18.12;52.19922;942.7902;;;;
2021/05/29 10:46:40;;;;;;;0.8;0.7;;;;;;;17.46;56.21582;942.83;;;;
2021/05/29 10:49:05;;;;;;;1.1;0.8;;;;;;;17.95;55.41895;942.7612;;;;
2021/05/29 10:51:31;;;;;;;0.7;0.7;;;;;;;18.21;54.37207;942.7914;;;;
2021/05/29 10:53:57;;;;;;;1.3;0.9;;;;;;;18.22;56.25586;942.8456;;;;
2021/05/29 10:56:22;;;;;;;2.5;0.7;;;;;;;17.55;56.61035;942.7929;;;;
2021/05/29 10:58:47;;;;;;;0.9;0.9;;;;;;;17.07;58.47266;942.7903;;;;
2021/05/29 11:01:12;;;;;;;1.5;1;;;;;;;16.73;57.38379;942.856;;;;
2021/05/29 11:03:38;;;;;;;1;0.8;;;;;;;17.11;57.93262;942.8495;;;;
2021/05/29 11:06:03;;;;;;;1.2;0.7;;;;;;;17.11;57.50391;942.8262;;;;
2021/05/29 11:08:29;;;;;;;1.4;0.9;;;;;;;17.23;57.9834;942.8214;;;;
2021/05/29 11:10:54;;;;;;;2.2;1.1;;;;;;;17.3;58.06152;942.8224;;;;
2021/05/29 11:13:19;;;;;;;0.8;0.5;;;;;;;16.99;56.86328;942.7037;;;;
2021/05/29 11:15:47;;;;;;;6.8;0.6;;;;;;;17.07;58.49414;942.6616;;;;
2021/05/29 11:18:12;;;;;;;0.8;0.6;;;;;;;17.14;57.00879;942.7769;;;;
2021/05/29 11:20:37;;;;;;;1;0.8;;;;;;;17.28;58.04785;942.7905;;;;
2021/05/29 11:23:02;;;;;;;1;0.7;;;;;;;17.07;55.79492;942.7219;;;;
2021/05/29 11:25:28;;;;;;;0.7;0.7;;;;;;;16.73;59.37598;942.7392;;;;
2021/05/29 11:27:54;;;;;;;1.3;0.9;;;;;;;16.62;59.19922;942.7083;;;;
2021/05/29 11:30:19;;;;;;;0.6;0.6;;;;;;;16.74;58.13965;942.7263;;;;
2021/05/29 11:32:45;;;;;;;1.5;0.8;;;;;;;16.96;58.47949;942.6895;;;;
2021/05/29 11:35:09;;;;;;;1.2;0.6;;;;;;;17.28;57.46777;942.6406;;;;
2021/05/29 11:37:34;;;;;;;0.8;0.8;;;;;;;17.54;54.12598;942.6336;;;;
2021/05/29 11:39:59;;;;;;;0.8;0.7;;;;;;;17.54;53.60352;942.6674;;;;
2021/05/29 11:42:24;;;;;;;1.1;1;;;;;;;17.55;54.84473;942.6633;;;;
2021/05/29 11:44:49;;;;;;;0.5;0.5;;;;;;;17.65;53.87207;942.6786;;;;
2021/05/29 11:47:14;;;;;;;0.8;0.6;;;;;;;17.62;53.34668;942.6604;;;;
2021/05/29 11:49:42;;;;;;;0.9;0.8;;;;;;;17.71;51.08301;942.5519;;;;
2021/05/29 11:52:07;;;;;;;0.5;0.5;;;;;;;17.87;50.77539;942.56;;;;
2021/05/29 11:54:32;;;;;;;0.8;0.3;;;;;;;17.81;48.50488;942.5878;;;;
2021/05/29 11:56:57;;;;;;;2.4;0.7;;;;;;;17.97;49.24316;942.632;;;;
2021/05/29 11:59:22;;;;;;;0.5;0.5;;;;;;;18.19;50.80176;942.6086;;;;
2021/05/29 12:01:48;;;;;;;0.3;0.3;;;;;;;18.21;48.67676;942.6358;;;;
2021/05/29 12:04:15;;;;;;;0.4;0.4;;;;;;;17.99;50.81348;942.6125;;;;
2021/05/29 12:06:38;;;;;;;6.8;1;;;;;;;18.16;47.61426;942.6348;;;;
2021/05/29 12:09:05;;;;;;;0.6;0.5;;;;;;;18.28;49.74121;942.62;;;;
2021/05/29 12:11:30;;;;;;;2.1;0.9;;;;;;;18.45;49.2041;942.6227;;;;
2021/05/29 12:13:56;;;;;;;0.5;0.5;;;;;;;18.52;49.61816;942.5968;;;;
2021/05/29 12:16:21;;;;;;;0.4;0.4;;;;;;;18.76;46.25977;942.5745;;;;
2021/05/29 12:18:50;;;;;;;1;0.4;;;;;;;18.79;45.99512;942.5886;;;;
2021/05/29 12:21:16;;;;;;;0.5;0.4;;;;;;;18.73;47.39648;942.5903;;;;
2021/05/29 12:23:44;;;;;;;0.9;0.6;;;;;;;18.82;45.67285;942.6181;;;;
2021/05/29 12:26:10;;;;;;;0.5;0.4;;;;;;;18.34;47.58789;942.5876;;;;
2021/05/29 12:28:35;;;;;;;0.5;0.5;;;;;;;18.53;48.42188;942.5699;;;;
2021/05/29 12:31:01;;;;;;;1;0.7;;;;;;;18.19;49.63867;942.5491;;;;
2021/05/29 12:33:26;;;;;;;0.6;0.6;;;;;;;18.25;47.13574;942.5341;;;;
2021/05/29 12:35:53;;;;;;;3.6;0.7;;;;;;;17.81;47.32031;942.4871;;;;
2021/05/29 12:38:19;;;;;;;0.6;0.4;;;;;;;17.93;51.89746;942.4311;;;;
2021/05/29 12:40:43;;;;;;;0.4;0.3;;;;;;;17.78;48.89648;942.5011;;;;
2021/05/29 12:43:10;;;;;;;2.3;0.4;;;;;;;17.89;51.55566;942.48;;;;
2021/05/29 12:45:35;;;;;;;0.5;0.5;;;;;;;18.1;49.37402;942.4946;;;;
2021/05/29 12:48:00;;;;;;;0.4;0.4;;;;;;;18.09;50;942.4335;;;;
2021/05/29 12:50:25;;;;;;;0.5;0.3;;;;;;;18.27;50.32227;942.4515;;;;
2021/05/29 12:52:50;;;;;;;0.6;0.6;;;;;;;18.02;48.16797;942.4381;;;;
2021/05/29 12:55:15;;;;;;;1;0.5;;;;;;;17.87;48.36035;942.3932;;;;
2021/05/29 12:57:42;;;;;;;1.2;0.6;;;;;;;17.79;49.06055;942.3253;;;;
2021/05/29 13:00:07;;;;;;;0.7;0.5;;;;;;;17.93;48.97168;942.3159;;;;
2021/05/29 13:02:42;;;;;;;0.3;0.3;;;;;;;17.88;50.24219;942.2883;;;;
2021/05/29 13:07:28;;;;;;;0.6;0.3;;;;;;;17.81;49.72461;942.2438;;;;
2021/05/29 13:09:47;;;;;;;0.4;0.4;;;;;;;18.11;49.33984;942.2486;;;;
2021/05/29 13:12:13;;;;;;;0.6;0.6;;;;;;;18.13;45.37988;942.2541;;;;
2021/05/29 13:14:38;;;;;;;3.3;0.6;;;;;;;18.19;48.39746;942.1903;;;;
2021/05/29 13:17:04;;;;;;;0.4;0.4;;;;;;;18.79;49.00879;942.1286;;;;
2021/05/29 13:19:28;;;;;;;0.5;0.4;;;;;;;18.97;47.07324;942.1172;;;;
2021/05/29 13:21:55;;;;;;;0.6;0.3;;;;;;;19.09;46.48047;942.1928;;;;
2021/05/29 13:24:20;;;;;;;0.8;0.4;;;;;;;18.95;48.93457;942.2328;;;;
2021/05/29 13:26:45;;;;;;;0.4;0.4;;;;;;;18.92;47.21875;942.2197;;;;
2021/05/29 13:29:16;;;;;;;0.3;0.3;;;;;;;18.93;44.02051;942.2541;;;;
2021/05/29 13:31:35;;;;;;;0.4;0.3;;;;;;;19.21;46.01563;942.2101;;;;
2021/05/29 13:34:00;;;;;;;0.5;0.3;;;;;;;19.43;43.43945;942.2545;;;;
2021/05/29 13:36:25;;;;;;;1.6;0.4;;;;;;;19.68;43.38281;942.2285;;;;
2021/05/29 13:38:52;;;;;;;0.3;0.2;;;;;;;19.67;44.2334;942.2182;;;;
2021/05/29 13:41:17;;;;;;;0.6;0.4;;;;;;;19.68;43.55762;942.2214;;;;
2021/05/29 13:43:43;;;;;;;0.2;0.2;;;;;;;19.72;43.13086;942.2067;;;;
2021/05/29 13:46:08;;;;;;;0.2;0.2;;;;;;;19.81;44.90039;942.2333;;;;
2021/05/29 13:48:35;;;;;;;0.3;0.3;;;;;;;20.06;43.95703;942.2021;;;;
2021/05/29 13:51:00;;;;;;;0.1;0.1;;;;;;;20.04;42.625;942.158;;;;
2021/05/29 13:53:26;;;;;;;0.2;0.2;;;;;;;20.07;44.63477;942.1639;;;;
2021/05/29 13:55:51;;;;;;;0.1;0.1;;;;;;;20.28;44.0498;942.1345;;;;
2021/05/29 13:58:16;;;;;;;0.8;0.5;;;;;;;20.15;40.74512;942.1549;;;;
2021/05/29 14:00:41;;;;;;;0.3;0.3;;;;;;;19.91;40.9209;942.1717;;;;
2021/05/29 14:03:07;;;;;;;0.5;0.3;;;;;;;19.87;40.45117;942.1347;;;;
2021/05/29 14:05:32;;;;;;;0.4;0.3;;;;;;;19.22;38.76074;942.1058;;;;
2021/05/29 14:08:01;;;;;;;0.3;0.3;;;;;;;19.35;40.97363;942.1628;;;;
2021/05/29 14:10:25;;;;;;;0.3;0.3;;;;;;;18.97;43.15039;942.1704;;;;
2021/05/29 14:12:51;;;;;;;0.2;0.2;;;;;;;19.34;43.2334;942.1613;;;;
2021/05/29 14:15:15;;;;;;;1.6;0.9;;;;;;;19.53;40.80371;942.1501;;;;
2021/05/29 14:17:41;;;;;;;0.4;0.3;;;;;;;19.45;44.43262;942.1895;;;;
2021/05/29 14:20:06;;;;;;;0.3;0.3;;;;;;;19.49;44.25;942.1984;;;;
2021/05/29 14:22:33;;;;;;;0.6;0.5;;;;;;;19.55;42.1582;942.1096;;;;
2021/05/29 14:24:58;;;;;;;0.6;0.4;;;;;;;19.53;41.79492;942.1364;;;;
2021/05/29 14:27:24;;;;;;;0.6;0.5;;;;;;;19.41;40.16309;942.1463;;;;
2021/05/29 14:29:49;;;;;;;0.3;0.3;;;;;;;19.36;41.26563;942.1117;;;;
2021/05/29 14:32:15;;;;;;;1.7;0.6;;;;;;;19.46;42.19531;942.1303;;;;
2021/05/29 14:34:52;;;;;;;0.2;0.2;;;;;;;19.17;42.95996;942.093;;;;
2021/05/29 14:37:14;;;;;;;0.8;0.4;;;;;;;19.44;43.70996;942.0959;;;;
2021/05/29 14:39:43;;;;;;;0.7;0.5;;;;;;;18.97;43.7666;942.0994;;;;
2021/05/29 14:42:04;;;;;;;0.5;0.4;;;;;;;18.89;43.43359;942.0715;;;;
2021/05/29 14:44:31;;;;;;;0.5;0.4;;;;;;;18.86;41.23145;942.0883;;;;
2021/05/29 14:46:56;;;;;;;0.5;0.5;;;;;;;18.94;42.34473;942.1096;;;;
2021/05/29 14:49:21;;;;;;;0.2;0.2;;;;;;;19.12;41.25586;942.0527;;;;
2021/05/29 14:51:46;;;;;;;2.4;0.4;;;;;;;19.34;40.19336;942.0499;;;;
2021/05/29 14:54:13;;;;;;;0.3;0.3;;;;;;;19.44;40.66797;942.1136;;;;
2021/05/29 14:56:38;;;;;;;0.3;0.3;;;;;;;19.49;42.03613;942.1096;;;;
2021/05/29 14:59:03;;;;;;;1.2;0.6;;;;;;;19.25;39.41504;942.0829;;;;
2021/05/29 15:01:29;;;;;;;0.4;0.4;;;;;;;19.52;40.65137;942.1035;;;;
2021/05/29 15:03:55;;;;;;;0.2;0.2;;;;;;;19.5;39.49609;942.119;;;;
2021/05/29 15:06:18;;;;;;;0.1;0.1;;;;;;;19.7;39.47852;942.0786;;;;
2021/05/29 15:08:43;;;;;;;0.4;0.4;;;;;;;19.49;37.24609;942.0385;;;;
2021/05/29 15:11:10;;;;;;;0.3;0.3;;;;;;;19.27;38.125;942.0366;;;;
2021/05/29 15:13:35;;;;;;;0.2;0.2;;;;;;;19.44;37.19531;942.0013;;;;
2021/05/29 15:16:01;;;;;;;0.3;0.3;;;;;;;19.55;36.55176;942.0619;;;;
2021/05/29 15:18:26;;;;;;;1.2;0.3;;;;;;;19.3;37.73145;942.0464;;;;
2021/05/29 15:21:12;;;;;;;0.3;0.3;;;;;;;19.19;40.57422;942.062;;;;
2021/05/29 15:23:18;;;;;;;0.2;0.2;;;;;;;18.84;38.87891;942.0433;;;;
2021/05/29 15:25:49;;;;;;;0.3;0.2;;;;;;;18.94;40.99414;941.9828;;;;
2021/05/29 15:28:08;;;;;;;0.4;0.3;;;;;;;18.82;40.28516;942.08;;;;
2021/05/29 15:30:33;;;;;;;0.6;0.3;;;;;;;18.95;41.29883;942.0422;;;;
2021/05/29 15:32:58;;;;;;;0.4;0.4;;;;;;;18.96;41.125;942.0009;;;;
2021/05/29 15:35:24;;;;;;;2.7;0.3;;;;;;;19.06;42.51953;941.9931;;;;
2021/05/29 15:37:49;;;;;;;0.2;0.2;;;;;;;19.11;41.04395;941.9464;;;;
2021/05/29 15:40:15;;;;;;;0.3;0.3;;;;;;;19;40.62695;941.9769;;;;
2021/05/29 15:42:41;;;;;;;3.4;0.4;;;;;;;18.67;39.53809;941.9603;;;;
2021/05/29 15:45:07;;;;;;;0.5;0.3;;;;;;;18.44;39.77344;941.9858;;;;